Time;durP1;ratioP1;P1;durP2;ratioP2;P2;SDS_P1;SDS_P2;PMS_P1;PMS_P2;Temp;Humidity;BMP_temperature;BMP_pressure;BME280_temperature;BME280_humidity;BME280_pressure;Samples;Min_cycle;Max_cycle;Signal;HPM_P1;HPM_P2
2021/12/03 00:00:27;;;;;;;22.60;16.93;;;5.70;99.90;;;;;;6277030;28;20848;-66
2021/12/03 00:03:32;;;;;;;18.50;16.50;;;5.70;99.90;;;;;;6275678;28;20497;-65
2021/12/03 00:06:37;;;;;;;22.40;17.53;;;5.70;99.90;;;;;;6228052;28;20494;-65
2021/12/03 00:09:40;;;;;;;23.63;17.17;;;5.70;99.90;;;;;;6247204;28;20470;-61
2021/12/03 00:12:45;;;;;;;18.33;15.50;;;5.60;99.90;;;;;;6250464;28;20471;-66
2021/12/03 00:15:49;;;;;;;20.37;16.83;;;5.60;99.90;;;;;;6250207;28;20490;-65
2021/12/03 00:18:54;;;;;;;21.17;17.90;;;5.50;99.90;;;;;;6250353;28;20475;-66
2021/12/03 00:21:57;;;;;;;19.63;17.53;;;5.60;99.90;;;;;;6250032;28;20486;-66
2021/12/03 00:25:01;;;;;;;22.40;17.67;;;5.70;99.90;;;;;;6250076;28;20771;-65
2021/12/03 00:28:05;;;;;;;20.70;17.17;;;5.70;99.90;;;;;;6250591;28;20475;-62
2021/12/03 00:31:09;;;;;;;18.20;16.30;;;5.70;99.90;;;;;;6250051;28;20471;-63
2021/12/03 00:34:14;;;;;;;18.63;16.73;;;5.70;99.90;;;;;;6249946;28;20481;-65
2021/12/03 00:37:17;;;;;;;23.13;18.20;;;5.80;99.90;;;;;;6250737;28;20827;-65
2021/12/03 00:40:25;;;;;;;18.33;16.17;;;5.70;99.90;;;;;;6238720;28;20485;-63
2021/12/03 00:43:28;;;;;;;17.70;15.80;;;5.70;99.90;;;;;;6241164;28;20970;-65
2021/12/03 00:46:31;;;;;;;16.57;14.97;;;5.80;99.90;;;;;;6250293;28;20538;-63
2021/12/03 00:49:35;;;;;;;17.63;15.87;;;5.80;99.90;;;;;;6250861;28;20466;-64
2021/12/03 00:52:39;;;;;;;20.47;14.80;;;5.90;99.90;;;;;;6263850;28;20439;-64
2021/12/03 00:55:42;;;;;;;15.50;12.20;;;5.90;99.90;;;;;;6274505;28;20489;-66
2021/12/03 00:58:46;;;;;;;15.40;12.63;;;5.90;99.90;;;;;;6275402;28;20450;-65
2021/12/03 01:01:49;;;;;;;13.50;11.13;;;5.90;99.90;;;;;;6226111;28;20444;-63
2021/12/03 01:04:54;;;;;;;13.43;10.80;;;5.90;99.90;;;;;;6237425;28;20819;-64
2021/12/03 01:07:58;;;;;;;14.10;10.80;;;5.90;99.90;;;;;;6249420;28;20462;-67
2021/12/03 01:11:01;;;;;;;12.30;11.00;;;5.90;99.90;;;;;;6250532;28;20462;-65
2021/12/03 01:14:05;;;;;;;12.23;11.00;;;5.90;99.90;;;;;;6250248;28;20470;-62
2021/12/03 01:17:08;;;;;;;14.57;11.17;;;5.90;99.90;;;;;;6250598;28;20462;-65
2021/12/03 01:20:14;;;;;;;12.37;11.07;;;6.00;99.90;;;;;;6248917;28;20804;-65
2021/12/03 01:23:18;;;;;;;11.73;10.17;;;5.90;99.90;;;;;;6254658;28;20478;-65
2021/12/03 01:26:22;;;;;;;11.47;10.03;;;5.90;99.90;;;;;;6274250;28;20493;-63
2021/12/03 01:29:26;;;;;;;12.10;10.63;;;5.90;99.90;;;;;;6274820;28;20470;-65
2021/12/03 01:32:29;;;;;;;12.30;9.97;;;5.80;99.90;;;;;;6274322;28;20478;-63
2021/12/03 01:35:34;;;;;;;11.90;10.07;;;5.80;99.90;;;;;;6272567;28;21001;-63
2021/12/03 01:38:38;;;;;;;12.83;10.87;;;5.80;99.90;;;;;;6265181;28;20593;-65
2021/12/03 01:41:41;;;;;;;12.53;10.50;;;5.70;99.90;;;;;;6249538;28;20820;-63
2021/12/03 01:44:44;;;;;;;12.23;9.70;;;5.70;99.90;;;;;;6244421;28;20795;-61
2021/12/03 01:47:49;;;;;;;13.67;11.00;;;5.70;99.90;;;;;;6248930;28;20819;-61
2021/12/03 01:50:55;;;;;;;13.47;10.67;;;5.60;99.90;;;;;;6249182;28;20969;-61
2021/12/03 01:53:58;;;;;;;12.43;11.10;;;5.60;99.90;;;;;;6273313;28;20531;-61
2021/12/03 01:57:02;;;;;;;12.37;10.70;;;5.60;99.90;;;;;;6273910;28;20527;-61
2021/12/03 02:00:08;;;;;;;12.87;10.50;;;5.60;99.90;;;;;;6273369;28;20982;-61
2021/12/03 02:03:14;;;;;;;14.07;12.00;;;5.60;99.90;;;;;;6258770;28;20493;-61
2021/12/03 02:06:18;;;;;;;15.57;11.03;;;5.60;99.90;;;;;;6247321;28;20475;-60
2021/12/03 02:09:22;;;;;;;13.17;11.93;;;5.60;99.90;;;;;;6245231;28;20904;-61
2021/12/03 02:12:25;;;;;;;14.37;11.33;;;5.60;99.90;;;;;;6248170;28;20474;-61
2021/12/03 02:15:28;;;;;;;14.10;10.83;;;5.60;99.90;;;;;;6247389;28;20485;-61
2021/12/03 02:18:32;;;;;;;14.20;11.90;;;5.60;99.90;;;;;;6248408;28;20794;-61
2021/12/03 02:21:36;;;;;;;11.90;10.60;;;5.50;99.90;;;;;;6248559;28;20487;-61
2021/12/03 02:24:39;;;;;;;14.37;11.63;;;5.50;99.90;;;;;;6248677;28;20471;-60
2021/12/03 02:27:43;;;;;;;17.17;15.40;;;5.50;99.90;;;;;;6248397;28;20919;-61
2021/12/03 02:30:47;;;;;;;21.90;19.80;;;5.50;99.90;;;;;;6248457;28;20481;-61
2021/12/03 02:33:51;;;;;;;18.93;17.00;;;5.40;99.90;;;;;;6247789;28;20490;-61
2021/12/03 02:36:55;;;;;;;14.70;13.10;;;5.40;99.90;;;;;;6224192;28;20495;-60
2021/12/03 02:39:59;;;;;;;15.70;13.97;;;5.40;99.90;;;;;;6248962;28;20489;-60
2021/12/03 02:43:02;;;;;;;15.83;13.50;;;5.40;99.90;;;;;;6273210;28;20802;-60
2021/12/03 02:46:05;;;;;;;15.87;13.33;;;5.30;99.90;;;;;;6271576;28;20474;-61
2021/12/03 02:49:13;;;;;;;13.30;11.87;;;5.30;99.90;;;;;;6273689;28;20496;-61
2021/12/03 02:52:18;;;;;;;13.47;12.00;;;5.30;99.90;;;;;;6268637;28;20986;-61
2021/12/03 02:55:23;;;;;;;11.77;10.53;;;5.30;99.90;;;;;;6272854;28;21209;-61
2021/12/03 02:58:26;;;;;;;14.37;10.70;;;5.20;99.90;;;;;;6272601;28;20490;-60
2021/12/03 03:01:29;;;;;;;13.77;10.57;;;5.20;99.90;;;;;;6271753;28;20474;-60
2021/12/03 03:04:33;;;;;;;10.70;9.60;;;5.20;99.90;;;;;;6257155;28;20481;-65
2021/12/03 03:07:37;;;;;;;11.20;8.90;;;5.30;99.90;;;;;;6247581;28;20459;-65
2021/12/03 03:10:42;;;;;;;15.50;12.10;;;5.20;99.90;;;;;;6248422;28;20439;-65
2021/12/03 03:13:45;;;;;;;16.23;14.20;;;5.20;99.90;;;;;;6248218;28;20447;-65
2021/12/03 03:16:48;;;;;;;20.50;14.67;;;5.10;99.90;;;;;;6247208;28;20478;-65
2021/12/03 03:19:52;;;;;;;15.20;12.63;;;5.10;99.90;;;;;;6246632;28;20530;-65
2021/12/03 03:22:57;;;;;;;15.10;13.50;;;5.10;99.90;;;;;;6245928;28;20892;-65
2021/12/03 03:26:00;;;;;;;13.60;11.90;;;5.10;99.90;;;;;;6247244;28;20470;-65
2021/12/03 03:29:05;;;;;;;12.07;10.63;;;5.10;99.90;;;;;;6247771;28;20897;-61
2021/12/03 03:32:09;;;;;;;11.80;10.67;;;5.20;99.90;;;;;;6247994;28;20505;-65
2021/12/03 03:35:13;;;;;;;12.27;10.63;;;5.10;99.90;;;;;;6247902;28;20526;-65
2021/12/03 03:38:17;;;;;;;9.67;8.77;;;5.10;99.90;;;;;;6248178;28;20568;-65
2021/12/03 03:41:21;;;;;;;8.40;6.90;;;5.10;99.90;;;;;;6248093;28;20475;-65
2021/12/03 03:44:25;;;;;;;8.90;8.00;;;5.20;99.90;;;;;;6251749;28;20475;-65
2021/12/03 03:47:28;;;;;;;9.80;8.60;;;5.20;99.90;;;;;;6252003;28;20485;-65
2021/12/03 03:50:32;;;;;;;14.83;8.77;;;5.30;99.90;;;;;;6252524;28;20505;-65
2021/12/03 03:53:38;;;;;;;9.00;7.00;;;5.20;99.90;;;;;;6244548;28;20815;-65
2021/12/03 03:56:43;;;;;;;7.87;6.60;;;5.20;99.90;;;;;;6253011;28;20483;-65
2021/12/03 03:59:46;;;;;;;7.20;6.47;;;5.20;99.90;;;;;;6252594;28;20482;-65
2021/12/03 04:02:49;;;;;;;6.87;6.27;;;5.20;99.90;;;;;;6252957;28;20467;-65
2021/12/03 04:05:53;;;;;;;7.50;6.77;;;5.20;99.90;;;;;;6251996;28;20463;-65
2021/12/03 04:08:58;;;;;;;9.23;7.50;;;5.20;99.90;;;;;;6252139;28;20506;-65
2021/12/03 04:12:01;;;;;;;9.17;7.90;;;5.30;99.90;;;;;;6252566;28;20958;-65
2021/12/03 04:15:06;;;;;;;8.27;7.13;;;5.20;99.90;;;;;;6252588;28;20479;-65
2021/12/03 04:18:09;;;;;;;8.20;7.20;;;5.20;99.90;;;;;;6252697;28;20485;-65
2021/12/03 04:21:13;;;;;;;10.03;8.53;;;5.10;99.90;;;;;;6252947;28;20474;-65
2021/12/03 04:24:17;;;;;;;8.17;6.93;;;5.20;99.90;;;;;;6252851;28;20471;-65
2021/12/03 04:27:20;;;;;;;7.60;6.57;;;5.20;99.90;;;;;;6252559;28;20483;-65
2021/12/03 04:30:26;;;;;;;10.60;8.10;;;5.20;99.90;;;;;;6252397;28;20475;-65
2021/12/03 04:33:30;;;;;;;8.33;6.43;;;5.10;99.90;;;;;;6253395;28;20478;-65
2021/12/03 04:36:33;;;;;;;6.83;6.13;;;5.10;99.90;;;;;;6252739;28;20482;-65
2021/12/03 04:39:38;;;;;;;8.30;5.80;;;5.10;99.90;;;;;;6252519;28;20966;-65
2021/12/03 04:42:42;;;;;;;8.03;5.40;;;5.20;99.90;;;;;;6252079;28;20861;-65
2021/12/03 04:45:46;;;;;;;8.00;7.23;;;5.20;99.90;;;;;;6252770;28;20475;-65
2021/12/03 04:48:49;;;;;;;7.67;5.97;;;5.10;99.90;;;;;;6252140;28;20498;-65
2021/12/03 04:51:52;;;;;;;7.30;6.10;;;5.10;99.90;;;;;;6259106;28;21004;-65
2021/12/03 04:54:57;;;;;;;8.03;5.80;;;5.10;99.90;;;;;;6275495;28;21000;-65
2021/12/03 04:58:00;;;;;;;8.50;6.30;;;5.10;99.90;;;;;;6276625;28;20482;-62
2021/12/03 05:01:03;;;;;;;6.93;5.83;;;5.10;99.90;;;;;;6277204;28;20466;-61
2021/12/03 05:04:07;;;;;;;4.70;4.30;;;5.10;99.90;;;;;;6276762;28;20474;-61
2021/12/03 05:07:28;;;;;;;3.80;3.50;;;5.00;99.90;;;;;;6256639;28;20955;-61
2021/12/03 05:10:34;;;;;;;5.27;4.30;;;5.00;99.90;;;;;;6251999;28;20483;-60
2021/12/03 05:13:39;;;;;;;5.00;4.30;;;5.00;99.90;;;;;;6251915;28;20443;-60
2021/12/03 05:16:44;;;;;;;6.73;3.90;;;4.90;99.90;;;;;;6251618;28;20463;-61
2021/12/03 05:19:48;;;;;;;4.60;4.20;;;4.90;99.90;;;;;;6251638;28;21037;-61
2021/12/03 05:22:51;;;;;;;5.20;4.00;;;4.90;99.90;;;;;;6251269;28;20914;-64
2021/12/03 05:25:56;;;;;;;6.00;4.63;;;4.90;99.90;;;;;;6250934;28;20471;-64
2021/12/03 05:28:59;;;;;;;4.37;3.97;;;4.80;99.90;;;;;;6251596;28;20471;-64
2021/12/03 05:32:03;;;;;;;4.20;3.80;;;4.80;99.90;;;;;;6251014;28;20491;-65
2021/12/03 05:35:09;;;;;;;4.77;3.87;;;4.80;99.90;;;;;;6251596;28;20474;-61
2021/12/03 05:38:13;;;;;;;3.80;3.40;;;4.80;99.90;;;;;;6251469;28;20919;-60
2021/12/03 05:41:17;;;;;;;5.60;4.03;;;4.80;99.90;;;;;;6250741;28;21021;-64
2021/12/03 05:44:20;;;;;;;6.60;5.20;;;4.80;99.90;;;;;;6251142;28;20548;-64
2021/12/03 05:47:23;;;;;;;6.27;4.40;;;4.80;99.90;;;;;;6251040;28;20970;-60
2021/12/03 05:50:28;;;;;;;3.90;3.53;;;4.80;99.90;;;;;;6250943;28;20474;-64
2021/12/03 05:53:31;;;;;;;6.20;4.53;;;4.70;99.90;;;;;;6271232;28;20786;-63
2021/12/03 05:56:36;;;;;;;4.67;3.93;;;4.60;99.90;;;;;;6275316;28;20488;-60
2021/12/03 05:59:39;;;;;;;3.20;2.90;;;4.60;99.90;;;;;;6275442;28;20603;-60
2021/12/03 06:02:42;;;;;;;3.83;3.13;;;4.70;99.90;;;;;;6270680;28;20470;-61
2021/12/03 06:05:46;;;;;;;6.30;3.10;;;4.70;99.90;;;;;;6267061;28;20503;-61
2021/12/03 06:08:49;;;;;;;3.83;3.30;;;4.70;99.90;;;;;;6250431;28;20486;-61
2021/12/03 06:11:54;;;;;;;4.47;3.90;;;4.70;99.90;;;;;;6250839;28;20471;-64
2021/12/03 06:14:57;;;;;;;6.53;4.80;;;4.60;99.90;;;;;;6250440;28;20490;-65
2021/12/03 06:18:00;;;;;;;3.80;3.50;;;4.60;99.90;;;;;;6249961;28;20474;-65
2021/12/03 06:21:05;;;;;;;3.50;3.20;;;4.50;99.90;;;;;;6250243;28;20478;-64
2021/12/03 06:24:09;;;;;;;3.53;3.23;;;4.50;99.90;;;;;;6250083;28;20481;-65
2021/12/03 06:27:13;;;;;;;4.60;3.07;;;4.50;99.90;;;;;;6249928;28;20470;-65
2021/12/03 06:30:19;;;;;;;4.83;2.83;;;4.50;99.90;;;;;;6249942;28;20475;-65
2021/12/03 06:33:22;;;;;;;3.70;3.40;;;4.60;99.90;;;;;;6250198;28;20986;-65
2021/12/03 06:36:26;;;;;;;3.60;3.23;;;4.50;99.90;;;;;;6250931;28;20789;-65
2021/12/03 06:39:29;;;;;;;3.90;3.47;;;4.50;99.90;;;;;;6250242;28;20814;-61
2021/12/03 06:42:34;;;;;;;3.50;2.80;;;4.50;99.90;;;;;;6250735;28;20982;-61
2021/12/03 06:45:38;;;;;;;4.53;3.10;;;4.50;99.90;;;;;;6249611;28;20478;-60
2021/12/03 06:48:41;;;;;;;3.67;3.30;;;4.60;99.90;;;;;;6249952;28;20540;-60
2021/12/03 06:51:45;;;;;;;3.57;3.27;;;4.60;99.90;;;;;;6255551;28;20535;-60
2021/12/03 06:54:55;;;;;;;4.13;3.73;;;4.70;99.90;;;;;;6274684;28;20473;-60
2021/12/03 06:57:59;;;;;;;4.37;4.00;;;4.70;99.90;;;;;;6274641;28;20474;-60
2021/12/03 07:01:03;;;;;;;4.00;2.90;;;4.90;99.90;;;;;;6274274;28;20478;-61
2021/12/03 07:04:06;;;;;;;4.67;4.20;;;5.00;99.90;;;;;;6274366;28;20984;-61
2021/12/03 07:07:09;;;;;;;3.93;3.63;;;5.10;99.90;;;;;;6245923;28;20482;-61
2021/12/03 07:10:13;;;;;;;3.83;3.53;;;5.10;99.90;;;;;;6249621;28;20799;-61
2021/12/03 07:13:17;;;;;;;5.83;2.97;;;5.30;99.90;;;;;;6249559;28;20467;-61
2021/12/03 07:16:20;;;;;;;7.33;5.67;;;5.40;99.90;;;;;;6249745;28;20483;-61
2021/12/03 07:19:24;;;;;;;8.27;7.37;;;5.40;99.90;;;;;;6254186;28;20490;-60
2021/12/03 07:22:28;;;;;;;4.97;4.50;;;5.40;99.90;;;;;;6255344;28;20471;-60
2021/12/03 07:25:31;;;;;;;11.20;10.00;;;5.40;99.90;;;;;;6254886;28;20529;-60
2021/12/03 07:28:36;;;;;;;6.87;6.20;;;5.50;99.90;;;;;;6254028;28;20467;-60
2021/12/03 07:31:39;;;;;;;4.23;3.93;;;5.50;99.90;;;;;;6254269;28;20458;-61
2021/12/03 07:34:43;;;;;;;4.73;4.43;;;5.50;99.90;;;;;;6253710;28;20892;-61
2021/12/03 07:37:46;;;;;;;3.93;3.27;;;5.50;99.90;;;;;;6253968;28;20474;-61
2021/12/03 07:40:50;;;;;;;3.80;3.50;;;5.50;99.90;;;;;;6253785;28;20490;-61
2021/12/03 07:43:55;;;;;;;4.57;3.63;;;5.50;99.90;;;;;;6254698;28;20443;-61
2021/12/03 07:46:58;;;;;;;5.07;4.60;;;5.50;99.90;;;;;;6253633;28;20471;-61
2021/12/03 07:50:01;;;;;;;5.60;4.70;;;5.60;99.90;;;;;;6253488;28;20458;-61
2021/12/03 07:53:06;;;;;;;7.90;6.40;;;5.60;99.90;;;;;;6270228;28;20465;-61
2021/12/03 07:56:10;;;;;;;5.80;4.37;;;5.60;99.90;;;;;;6278011;28;20958;-61
2021/12/03 07:59:15;;;;;;;6.20;4.77;;;5.60;99.90;;;;;;6278110;28;20976;-61
2021/12/03 08:02:18;;;;;;;8.33;4.40;;;5.60;99.90;;;;;;6278158;28;20473;-61
2021/12/03 08:05:21;;;;;;;7.27;4.37;;;5.60;99.90;;;;;;6273211;28;20466;-61
2021/12/03 08:08:28;;;;;;;5.80;4.67;;;5.70;99.90;;;;;;6250934;28;20467;-60
2021/12/03 08:11:32;;;;;;;7.93;5.23;;;5.70;99.90;;;;;;6257586;28;20814;-60
2021/12/03 08:14:36;;;;;;;9.53;5.40;;;5.80;99.90;;;;;;6254712;28;20996;-61
2021/12/03 08:17:40;;;;;;;5.53;4.93;;;5.90;99.90;;;;;;6253356;28;20474;-61
2021/12/03 08:20:43;;;;;;;6.60;5.50;;;5.90;99.90;;;;;;6257425;28;20479;-60
2021/12/03 08:23:48;;;;;;;7.37;6.07;;;6.10;99.90;;;;;;6254424;28;20463;-61
2021/12/03 08:26:51;;;;;;;8.23;6.70;;;6.20;99.90;;;;;;6252599;28;20498;-61
2021/12/03 08:29:56;;;;;;;11.07;8.10;;;6.50;99.90;;;;;;6252571;28;20471;-61
2021/12/03 08:32:59;;;;;;;9.47;7.10;;;6.70;99.90;;;;;;6254004;28;20459;-61
2021/12/03 08:36:03;;;;;;;7.90;7.20;;;7.00;99.90;;;;;;6252125;28;20478;-61
2021/12/03 08:39:07;;;;;;;8.53;6.20;;;7.40;99.90;;;;;;6251256;28;20561;-61
2021/12/03 08:42:11;;;;;;;8.57;6.90;;;7.70;99.90;;;;;;6251590;28;20463;-61
2021/12/03 08:45:18;;;;;;;7.07;4.60;;;7.90;99.90;;;;;;6251153;28;20515;-61
2021/12/03 08:48:23;;;;;;;18.93;14.30;;;8.10;99.90;;;;;;6251170;28;20462;-61
2021/12/03 08:51:36;;;;;;;6.23;5.30;;;8.30;99.90;;;;;;6251485;28;20455;-61
2021/12/03 08:54:52;;;;;;;7.53;5.83;;;8.50;99.90;;;;;;6251488;28;20979;-61
2021/12/03 08:57:56;;;;;;;9.80;6.07;;;8.50;99.90;;;;;;6249408;28;20471;-61
2021/12/03 09:01:00;;;;;;;7.00;6.30;;;8.60;99.90;;;;;;6249816;28;20484;-60
2021/12/03 09:04:05;;;;;;;9.57;8.27;;;8.60;99.90;;;;;;6249570;28;20478;-64
2021/12/03 09:07:09;;;;;;;14.00;8.60;;;8.50;99.90;;;;;;6249239;28;20463;-65
2021/12/03 09:10:14;;;;;;;9.80;8.83;;;8.20;99.90;;;;;;6250584;28;20467;-62
2021/12/03 09:13:17;;;;;;;7.80;7.10;;;8.20;99.90;;;;;;6250318;28;20471;-64
2021/12/03 09:16:22;;;;;;;14.87;8.37;;;8.00;99.90;;;;;;6250522;28;20474;-66
2021/12/03 09:19:29;;;;;;;8.93;8.03;;;8.10;99.90;;;;;;6249504;28;20493;-65
2021/12/03 09:22:41;;;;;;;15.80;9.20;;;8.30;99.90;;;;;;6250012;28;20967;-64
2021/12/03 09:25:49;;;;;;;10.93;9.77;;;8.60;99.90;;;;;;6248608;28;20963;-62
2021/12/03 09:29:01;;;;;;;10.03;8.93;;;9.00;99.90;;;;;;6225710;28;20787;-65
2021/12/03 09:32:06;;;;;;;10.60;7.60;;;9.40;99.90;;;;;;6249761;28;20467;-63
2021/12/03 09:35:10;;;;;;;4.43;4.00;;;9.70;98.30;;;;;;6249707;28;21013;-64
2021/12/03 09:38:14;;;;;;;5.60;3.90;;;9.80;97.10;;;;;;6251085;28;20462;-64
2021/12/03 09:41:20;;;;;;;3.23;2.70;;;9.90;95.10;;;;;;6252035;28;20468;-65
2021/12/03 09:44:25;;;;;;;3.40;2.83;;;9.90;93.50;;;;;;6243632;28;20542;-66
2021/12/03 09:47:30;;;;;;;2.43;2.33;;;9.80;91.60;;;;;;6225435;28;20475;-66
2021/12/03 09:50:33;;;;;;;2.50;2.30;;;9.60;90.50;;;;;;6222605;28;20472;-66
2021/12/03 09:54:03;;;;;;;4.60;3.03;;;9.20;89.80;;;;;;6243966;28;20478;-66
2021/12/03 09:57:10;;;;;;;2.77;2.20;;;9.10;90.70;;;;;;6231570;28;20836;-66
2021/12/03 10:00:25;;;;;;;1.83;1.73;;;9.30;91.40;;;;;;6225058;28;20495;-64
2021/12/03 10:03:45;;;;;;;1.77;1.67;;;9.30;86.20;;;;;;6224600;28;20468;-63
2021/12/03 10:10:34;;;;;;;2.30;2.00;;;9.70;83.90;;;;;;6245185;28;20478;-65
2021/12/03 10:13:39;;;;;;;1.40;1.20;;;9.80;82.90;;;;;;6224362;28;20503;-65
2021/12/03 10:17:12;;;;;;;2.03;1.90;;;9.90;81.30;;;;;;6224202;28;20487;-64
2021/12/03 10:20:37;;;;;;;1.53;1.43;;;9.80;78.90;;;;;;6206472;28;21015;-64
2021/12/03 10:27:27;;;;;;;2.60;2.40;;;9.60;76.20;;;;;;6199294;28;20995;-65
2021/12/03 10:47:34;;;;;;;2.43;1.70;;;9.70;61.80;;;;;;6244696;28;20475;-64
2021/12/03 10:51:08;;;;;;;4.03;2.10;;;9.60;62.30;;;;;;6248200;28;20978;-65
2021/12/03 10:54:23;;;;;;;1.47;1.37;;;9.60;62.00;;;;;;6254898;28;20467;-65
2021/12/03 11:08:31;;;;;;;1.40;1.20;;;13.00;54.30;;;;;;6237371;28;20550;-67
2021/12/03 12:46:37;;;;;;;1.43;1.30;;;14.60;31.10;;;;;;6227321;28;20476;-64
2021/12/03 14:08:10;;;;;;;5.73;1.73;;;14.90;28.20;;;;;;6212773;28;20498;-61
2021/12/03 14:52:33;;;;;;;0.93;0.93;;;8.70;39.40;;;;;;6215794;28;20481;-67
2021/12/03 14:55:38;;;;;;;1.40;0.80;;;8.40;39.30;;;;;;6240735;28;20484;-67
2021/12/03 14:58:50;;;;;;;2.53;1.37;;;8.00;38.90;;;;;;6248735;28;20455;-68
2021/12/03 15:01:59;;;;;;;2.20;1.10;;;7.90;39.80;;;;;;6248789;28;20487;-66
2021/12/03 15:08:26;;;;;;;1.13;1.07;;;7.50;41.20;;;;;;6226806;28;20486;-65
2021/12/03 15:12:03;;;;;;;1.03;0.93;;;7.40;42.00;;;;;;6248777;28;20471;-66
2021/12/03 15:22:02;;;;;;;1.40;1.07;;;7.10;43.70;;;;;;6272683;28;20478;-65
2021/12/03 15:25:13;;;;;;;3.90;1.30;;;7.00;44.00;;;;;;6269984;28;20481;-67
2021/12/03 15:28:53;;;;;;;2.87;1.47;;;7.00;44.00;;;;;;6270669;28;20803;-66
2021/12/03 15:32:07;;;;;;;2.70;2.33;;;6.90;44.20;;;;;;6247740;28;20800;-68
2021/12/03 15:35:14;;;;;;;3.80;2.63;;;6.80;44.20;;;;;;6238317;28;20487;-63
2021/12/03 15:38:45;;;;;;;3.30;2.50;;;6.70;44.90;;;;;;6223832;28;20475;-63
2021/12/03 15:58:46;;;;;;;4.77;3.67;;;6.30;49.50;;;;;;6208352;28;20485;-61
2021/12/03 16:05:22;;;;;;;8.40;5.50;;;6.10;49.80;;;;;;6231169;28;20479;-61
2021/12/03 16:08:27;;;;;;;8.37;7.40;;;6.00;50.70;;;;;;6228840;28;20475;-61
2021/12/03 16:11:40;;;;;;;22.00;15.27;;;6.00;52.20;;;;;;6232726;28;20476;-60
2021/12/03 16:15:05;;;;;;;16.43;10.83;;;5.90;53.50;;;;;;6230422;28;20476;-61
2021/12/03 16:45:18;;;;;;;6.87;6.10;;;5.00;62.10;;;;;;6230334;28;20545;-66
2021/12/03 16:51:47;;;;;;;7.33;6.27;;;4.80;65.10;;;;;;6256382;28;20481;-66
2021/12/03 16:55:03;;;;;;;7.10;5.87;;;4.70;65.10;;;;;;6275180;28;20484;-65
2021/12/03 16:58:06;;;;;;;8.10;7.17;;;4.60;66.40;;;;;;6251278;28;20494;-65
2021/12/03 17:01:14;;;;;;;8.57;7.77;;;4.60;67.10;;;;;;6250373;28;20501;-65
2021/12/03 17:11:33;;;;;;;7.97;7.17;;;4.40;70.00;;;;;;6203675;28;20454;-65
2021/12/03 17:31:44;;;;;;;9.03;8.20;;;4.10;76.30;;;;;;6244494;28;20479;-63
2021/12/03 17:45:11;;;;;;;12.30;9.70;;;3.90;81.20;;;;;;6201329;28;20477;-62
2021/12/03 17:48:25;;;;;;;15.60;12.70;;;3.80;82.40;;;;;;6200706;28;20484;-62
2021/12/03 17:55:13;;;;;;;17.23;13.67;;;3.70;84.60;;;;;;6249641;28;20479;-63
2021/12/03 17:58:23;;;;;;;14.30;12.93;;;3.60;85.50;;;;;;6200219;28;20505;-63
2021/12/03 18:01:31;;;;;;;15.33;11.77;;;3.60;86.50;;;;;;6200123;28;20804;-63
2021/12/03 18:04:43;;;;;;;18.03;13.60;;;3.50;87.30;;;;;;6213172;28;20464;-63
2021/12/03 18:07:55;;;;;;;15.07;11.80;;;3.50;88.00;;;;;;6247547;28;20951;-63
2021/12/03 18:11:30;;;;;;;11.73;10.53;;;3.40;88.60;;;;;;6227257;28;20455;-63
2021/12/03 18:15:05;;;;;;;11.80;10.23;;;3.40;89.20;;;;;;6241057;28;20468;-66
2021/12/03 18:45:11;;;;;;;12.90;8.90;;;3.10;90.50;;;;;;6246901;28;20467;-65
2021/12/03 18:51:56;;;;;;;9.73;8.70;;;3.00;90.50;;;;;;6176944;28;20889;-66
2021/12/03 18:55:03;;;;;;;9.17;7.37;;;3.10;90.50;;;;;;6252544;28;20471;-65
2021/12/03 18:58:08;;;;;;;9.27;7.77;;;3.00;90.50;;;;;;6243241;28;20478;-65
2021/12/03 19:01:13;;;;;;;10.67;8.90;;;3.00;90.60;;;;;;6227201;28;20468;-65
2021/12/03 19:04:22;;;;;;;13.37;8.20;;;2.90;90.50;;;;;;6222468;28;20577;-64
2021/12/03 19:07:35;;;;;;;12.57;9.20;;;2.90;90.10;;;;;;6247222;28;20483;-63
2021/12/03 19:10:44;;;;;;;13.47;8.70;;;2.90;89.10;;;;;;6247745;28;20486;-65
2021/12/03 19:13:48;;;;;;;10.30;8.90;;;2.90;89.00;;;;;;6249488;28;20799;-63
2021/12/03 19:16:51;;;;;;;11.30;9.80;;;2.80;88.90;;;;;;6252960;28;20486;-65
2021/12/03 19:19:58;;;;;;;12.30;8.70;;;2.80;88.90;;;;;;6253760;28;20489;-67
2021/12/03 19:23:01;;;;;;;10.83;9.63;;;2.80;88.90;;;;;;6252699;28;20926;-63
2021/12/03 19:26:04;;;;;;;10.93;9.83;;;2.80;90.00;;;;;;6252717;28;20466;-66
2021/12/03 19:29:07;;;;;;;9.83;8.93;;;2.70;90.30;;;;;;6252970;28;20473;-64
2021/12/03 19:32:11;;;;;;;11.13;9.60;;;2.70;90.40;;;;;;6252899;28;20795;-64
2021/12/03 19:35:15;;;;;;;10.97;9.30;;;2.70;90.30;;;;;;6252851;28;20481;-66
2021/12/03 19:38:18;;;;;;;11.90;10.07;;;2.60;90.30;;;;;;6227875;28;20467;-63
2021/12/03 19:41:29;;;;;;;9.50;8.60;;;2.50;90.40;;;;;;6227744;28;21078;-65
2021/12/03 19:44:40;;;;;;;9.63;8.20;;;2.50;90.70;;;;;;6227887;28;20472;-64
2021/12/03 19:47:54;;;;;;;10.73;8.80;;;2.40;91.00;;;;;;6228377;28;20487;-65
2021/12/03 19:50:59;;;;;;;12.40;8.83;;;2.30;90.90;;;;;;6218868;28;20476;-67
2021/12/03 19:54:04;;;;;;;11.97;8.07;;;2.30;91.20;;;;;;6227352;28;20918;-65
2021/12/03 19:57:07;;;;;;;9.37;8.43;;;2.30;91.40;;;;;;6227130;28;20487;-66
2021/12/03 20:00:11;;;;;;;10.73;7.30;;;2.30;91.40;;;;;;6227937;28;20994;-64
2021/12/03 20:03:15;;;;;;;15.30;10.70;;;2.20;91.70;;;;;;6229988;28;20495;-65
2021/12/03 20:06:20;;;;;;;9.20;8.30;;;2.20;92.00;;;;;;6251842;28;20787;-64
2021/12/03 20:09:27;;;;;;;11.17;8.30;;;2.20;92.00;;;;;;6251879;28;20490;-66
2021/12/03 20:12:33;;;;;;;11.43;8.70;;;2.10;92.50;;;;;;6251572;28;20985;-64
2021/12/03 20:15:37;;;;;;;9.63;8.37;;;2.20;92.40;;;;;;6253528;28;20476;-65
2021/12/03 20:18:45;;;;;;;12.50;8.80;;;2.20;92.10;;;;;;6256849;28;20561;-67
2021/12/03 20:22:01;;;;;;;11.37;9.20;;;2.20;92.00;;;;;;6255991;28;20490;-70
2021/12/03 20:28:37;;;;;;;10.23;8.70;;;2.10;92.10;;;;;;6227161;28;20981;-67
2021/12/03 20:31:47;;;;;;;8.47;7.20;;;2.10;92.40;;;;;;6255550;28;20440;-66
2021/12/03 20:35:01;;;;;;;14.47;8.43;;;2.10;92.40;;;;;;6253095;28;20420;-66
2021/12/03 20:38:06;;;;;;;8.93;8.03;;;2.10;92.20;;;;;;6252481;28;20463;-67
2021/12/03 20:41:14;;;;;;;11.97;7.90;;;2.20;92.20;;;;;;6252216;28;20474;-65
2021/12/03 20:51:35;;;;;;;9.43;7.73;;;2.10;92.00;;;;;;6253667;28;20489;-64
2021/12/03 20:54:43;;;;;;;11.23;8.30;;;2.00;92.10;;;;;;6253827;28;20482;-64
2021/12/03 20:58:07;;;;;;;12.20;8.93;;;1.90;92.40;;;;;;6252256;28;20858;-64
2021/12/03 21:08:17;;;;;;;11.20;7.57;;;1.80;92.60;;;;;;6247120;28;20468;-64
2021/12/03 21:11:24;;;;;;;11.13;8.43;;;1.90;92.60;;;;;;6222270;28;20477;-65
2021/12/03 21:14:30;;;;;;;10.23;7.67;;;1.90;92.60;;;;;;6204986;28;20488;-64
2021/12/03 21:17:49;;;;;;;12.60;8.93;;;1.90;92.60;;;;;;6206969;28;20563;-64
2021/12/03 21:20:56;;;;;;;10.93;6.60;;;1.90;92.60;;;;;;6225761;28;20480;-66
2021/12/03 21:24:00;;;;;;;6.97;6.37;;;1.80;92.30;;;;;;6261059;28;20508;-66
2021/12/03 21:27:09;;;;;;;9.83;7.87;;;1.80;92.40;;;;;;6246598;28;20499;-64
2021/12/03 21:30:21;;;;;;;10.00;6.80;;;1.80;92.60;;;;;;6226387;28;20476;-66
2021/12/03 21:38:03;;;;;;;12.60;7.17;;;1.80;92.40;;;;;;6225833;28;20472;-67
2021/12/03 21:40:53;;;;;;;9.13;7.07;;;1.60;92.50;;;;;;6225033;28;20487;-64
2021/12/03 21:43:53;;;;;;;7.10;6.40;;;1.60;92.80;;;;;;6241075;28;20487;-64
2021/12/03 21:46:57;;;;;;;9.90;7.20;;;1.60;93.20;;;;;;6224911;28;20891;-64
2021/12/03 21:50:00;;;;;;;11.57;7.97;;;1.60;93.20;;;;;;6224912;28;20467;-64
2021/12/03 21:53:04;;;;;;;10.50;6.80;;;1.60;93.20;;;;;;6255794;28;20477;-67
2021/12/03 21:56:07;;;;;;;10.03;7.97;;;1.60;93.20;;;;;;6241641;28;20486;-68
2021/12/03 21:59:12;;;;;;;12.07;8.87;;;1.60;93.30;;;;;;6225111;28;20471;-67
2021/12/03 22:02:15;;;;;;;9.33;8.17;;;1.60;93.40;;;;;;6224998;28;20483;-69
2021/12/03 22:05:18;;;;;;;9.93;8.20;;;1.60;93.40;;;;;;6257163;28;20470;-68
2021/12/03 22:08:21;;;;;;;10.10;6.87;;;1.60;93.40;;;;;;6268311;28;20474;-69
2021/12/03 22:11:26;;;;;;;9.50;7.30;;;1.60;93.30;;;;;;6249215;28;20466;-67
2021/12/03 22:14:31;;;;;;;11.03;7.43;;;1.60;93.10;;;;;;6248926;28;20800;-65
2021/12/03 22:17:36;;;;;;;9.80;6.73;;;1.50;92.80;;;;;;6249287;28;20487;-68
2021/12/03 22:20:39;;;;;;;11.30;7.37;;;1.60;92.90;;;;;;6239747;28;20475;-65
2021/12/03 22:23:43;;;;;;;9.57;7.33;;;1.50;93.20;;;;;;6225684;28;20484;-67
2021/12/03 22:26:46;;;;;;;10.53;8.23;;;1.50;93.10;;;;;;6241094;28;20483;-67
2021/12/03 22:29:51;;;;;;;9.33;7.53;;;1.50;93.20;;;;;;6249912;28;20463;-69
2021/12/03 22:32:54;;;;;;;9.60;7.20;;;1.40;93.30;;;;;;6250392;28;20467;-68
2021/12/03 22:35:59;;;;;;;10.30;7.20;;;1.40;93.30;;;;;;6250054;28;20846;-67
2021/12/03 22:39:02;;;;;;;6.50;5.80;;;1.40;93.60;;;;;;6225389;28;20468;-67
2021/12/03 22:42:06;;;;;;;8.70;6.97;;;1.40;93.80;;;;;;6225053;28;20482;-68
2021/12/03 22:45:13;;;;;;;9.10;6.70;;;1.40;93.80;;;;;;6240469;28;20481;-69
2021/12/03 22:48:34;;;;;;;8.43;6.37;;;1.40;93.60;;;;;;6269822;28;20482;-68
2021/12/03 22:51:57;;;;;;;9.83;7.47;;;1.40;93.50;;;;;;6254449;28;20985;-63
2021/12/03 22:55:00;;;;;;;7.87;7.13;;;1.30;93.40;;;;;;6254699;28;20985;-68